sensor_id;sensor_type;location;lat;lon;timestamp;temperature;humidity
18317;DHT22;9284;52.298;21.164;2023-02-03T00:01:41;-0.40;1.00
18317;DHT22;9284;52.298;21.164;2023-02-03T00:04:10;-0.40;1.00
18317;DHT22;9284;52.298;21.164;2023-02-03T04:10:44;-1.40;1.00
18317;DHT22;9284;52.298;21.164;2023-02-03T04:13:13;-1.50;1.00
18317;DHT22;9284;52.298;21.164;2023-02-03T04:15:41;-1.50;1.00
18317;DHT22;9284;52.298;21.164;2023-02-03T04:18:11;-1.50;1.00
18317;DHT22;9284;52.298;21.164;2023-02-03T04:20:40;-1.50;1.00
18317;DHT22;9284;52.298;21.164;2023-02-03T04:23:09;-1.60;1.00
18317;DHT22;9284;52.298;21.164;2023-02-03T04:25:37;-1.60;1.00
18317;DHT22;9284;52.298;21.164;2023-02-03T04:28:07;-1.70;1.00
18317;DHT22;9284;52.298;21.164;2023-02-03T04:30:35;-1.60;92.80
18317;DHT22;9284;52.298;21.164;2023-02-03T04:33:03;-1.70;99.90
18317;DHT22;9284;52.298;21.164;2023-02-03T04:35:32;-1.70;99.90
18317;DHT22;9284;52.298;21.164;2023-02-03T04:38:00;-1.70;99.90
18317;DHT22;9284;52.298;21.164;2023-02-03T04:40:28;-1.80;99.90
18317;DHT22;9284;52.298;21.164;2023-02-03T04:43:05;-1.70;99.90
18317;DHT22;9284;52.298;21.164;2023-02-03T04:45:34;-1.70;1.00
18317;DHT22;9284;52.298;21.164;2023-02-03T04:48:03;-1.70;1.00
18317;DHT22;9284;52.298;21.164;2023-02-03T04:50:31;-1.80;99.90
18317;DHT22;9284;52.298;21.164;2023-02-03T04:53:00;-1.80;99.90
18317;DHT22;9284;52.298;21.164;2023-02-03T04:55:28;-1.90;99.90
18317;DHT22;9284;52.298;21.164;2023-02-03T04:57:57;-1.80;99.90
18317;DHT22;9284;52.298;21.164;2023-02-03T05:00:26;-1.90;1.00
18317;DHT22;9284;52.298;21.164;2023-02-03T05:02:57;-2.00;1.00
18317;DHT22;9284;52.298;21.164;2023-02-03T05:05:25;-2.00;1.00
18317;DHT22;9284;52.298;21.164;2023-02-03T05:07:53;-2.00;1.00
18317;DHT22;9284;52.298;21.164;2023-02-03T05:10:21;-2.00;1.00
18317;DHT22;9284;52.298;21.164;2023-02-03T05:12:50;-2.10;1.00
18317;DHT22;9284;52.298;21.164;2023-02-03T05:15:18;-2.10;63.40
18317;DHT22;9284;52.298;21.164;2023-02-03T05:17:46;-2.10;99.90
18317;DHT22;9284;52.298;21.164;2023-02-03T05:20:16;-2.10;99.90
18317;DHT22;9284;52.298;21.164;2023-02-03T05:22:45;-2.00;99.90
18317;DHT22;9284;52.298;21.164;2023-02-03T05:25:13;-2.00;99.90
18317;DHT22;9284;52.298;21.164;2023-02-03T05:27:42;-2.00;99.90
18317;DHT22;9284;52.298;21.164;2023-02-03T05:30:11;-2.10;99.90
18317;DHT22;9284;52.298;21.164;2023-02-03T05:32:39;-2.00;99.90
18317;DHT22;9284;52.298;21.164;2023-02-03T05:35:08;-2.10;93.90
18317;DHT22;9284;52.298;21.164;2023-02-03T05:37:37;-2.00;99.30
18317;DHT22;9284;52.298;21.164;2023-02-03T05:40:07;-2.00;99.90
18317;DHT22;9284;52.298;21.164;2023-02-03T05:42:49;-2.00;99.90
18317;DHT22;9284;52.298;21.164;2023-02-03T05:45:17;-2.00;99.90
18317;DHT22;9284;52.298;21.164;2023-02-03T05:47:46;-1.90;99.90
18317;DHT22;9284;52.298;21.164;2023-02-03T05:50:14;-2.00;1.00
18317;DHT22;9284;52.298;21.164;2023-02-03T05:52:45;-2.00;99.90
18317;DHT22;9284;52.298;21.164;2023-02-03T05:55:14;-2.00;99.90
18317;DHT22;9284;52.298;21.164;2023-02-03T05:57:42;-2.00;99.90
18317;DHT22;9284;52.298;21.164;2023-02-03T06:00:11;-2.00;99.90
18317;DHT22;9284;52.298;21.164;2023-02-03T06:02:40;-2.10;99.90
18317;DHT22;9284;52.298;21.164;2023-02-03T06:05:09;-2.10;99.90
18317;DHT22;9284;52.298;21.164;2023-02-03T06:07:37;-2.10;99.90
18317;DHT22;9284;52.298;21.164;2023-02-03T06:10:08;-2.10;99.90
18317;DHT22;9284;52.298;21.164;2023-02-03T06:12:36;-2.20;99.90
18317;DHT22;9284;52.298;21.164;2023-02-03T06:15:05;-2.30;99.90
18317;DHT22;9284;52.298;21.164;2023-02-03T06:17:34;-2.30;99.90
18317;DHT22;9284;52.298;21.164;2023-02-03T06:20:03;-2.40;99.90
18317;DHT22;9284;52.298;21.164;2023-02-03T06:22:31;-2.40;99.90
18317;DHT22;9284;52.298;21.164;2023-02-03T06:25:00;-2.40;99.90
18317;DHT22;9284;52.298;21.164;2023-02-03T06:27:29;-2.30;1.00
18317;DHT22;9284;52.298;21.164;2023-02-03T06:29:57;-2.30;1.00
18317;DHT22;9284;52.298;21.164;2023-02-03T06:32:26;-2.30;1.00
18317;DHT22;9284;52.298;21.164;2023-02-03T06:34:54;-2.30;1.00
18317;DHT22;9284;52.298;21.164;2023-02-03T06:37:23;-2.30;1.00
18317;DHT22;9284;52.298;21.164;2023-02-03T06:39:51;-2.30;1.00
18317;DHT22;9284;52.298;21.164;2023-02-03T06:42:19;-2.40;1.00
18317;DHT22;9284;52.298;21.164;2023-02-03T06:44:49;-2.30;1.00
18317;DHT22;9284;52.298;21.164;2023-02-03T06:47:18;-2.20;1.00
18317;DHT22;9284;52.298;21.164;2023-02-03T06:49:46;-2.20;1.00
18317;DHT22;9284;52.298;21.164;2023-02-03T06:52:14;-2.20;1.00
18317;DHT22;9284;52.298;21.164;2023-02-03T06:54:43;-2.20;1.00
18317;DHT22;9284;52.298;21.164;2023-02-03T06:57:11;-2.10;1.00
18317;DHT22;9284;52.298;21.164;2023-02-03T06:59:39;-2.10;1.00
18317;DHT22;9284;52.298;21.164;2023-02-03T07:02:10;-2.10;1.00
18317;DHT22;9284;52.298;21.164;2023-02-03T07:04:39;-2.10;1.00
18317;DHT22;9284;52.298;21.164;2023-02-03T07:07:07;-2.10;1.00
18317;DHT22;9284;52.298;21.164;2023-02-03T07:09:35;-2.10;1.00
18317;DHT22;9284;52.298;21.164;2023-02-03T07:12:04;-2.00;1.00
18317;DHT22;9284;52.298;21.164;2023-02-03T07:14:32;-2.00;1.00
18317;DHT22;9284;52.298;21.164;2023-02-03T07:17:02;-2.00;1.00
18317;DHT22;9284;52.298;21.164;2023-02-03T07:19:32;-1.90;1.00
18317;DHT22;9284;52.298;21.164;2023-02-03T07:22:00;-1.80;1.00
18317;DHT22;9284;52.298;21.164;2023-02-03T07:24:28;-1.80;1.00
18317;DHT22;9284;52.298;21.164;2023-02-03T07:26:56;-1.80;1.00
18317;DHT22;9284;52.298;21.164;2023-02-03T07:29:25;-1.60;1.00
18317;DHT22;9284;52.298;21.164;2023-02-03T07:31:53;-1.50;1.00
18317;DHT22;9284;52.298;21.164;2023-02-03T07:34:21;-1.40;1.00
18317;DHT22;9284;52.298;21.164;2023-02-03T07:36:51;-1.30;1.00
18317;DHT22;9284;52.298;21.164;2023-02-03T07:39:19;-1.20;1.00
18317;DHT22;9284;52.298;21.164;2023-02-03T07:41:48;-1.10;1.00
18317;DHT22;9284;52.298;21.164;2023-02-03T07:44:16;-1.00;1.00
18317;DHT22;9284;52.298;21.164;2023-02-03T07:46:44;-0.60;99.90
18317;DHT22;9284;52.298;21.164;2023-02-03T07:49:14;0.00;99.90
18317;DHT22;9284;52.298;21.164;2023-02-03T07:51:42;0.40;92.10
18317;DHT22;9284;52.298;21.164;2023-02-03T07:54:12;0.70;99.90
18317;DHT22;9284;52.298;21.164;2023-02-03T07:56:41;1.00;1.00
18317;DHT22;9284;52.298;21.164;2023-02-03T07:59:09;1.00;99.90
18317;DHT22;9284;52.298;21.164;2023-02-03T08:01:38;0.70;99.90
18317;DHT22;9284;52.298;21.164;2023-02-03T08:04:06;0.50;99.90
18317;DHT22;9284;52.298;21.164;2023-02-03T08:06:34;0.40;99.90
18317;DHT22;9284;52.298;21.164;2023-02-03T08:09:03;0.30;99.90
18317;DHT22;9284;52.298;21.164;2023-02-03T08:11:32;0.40;1.00
18317;DHT22;9284;52.298;21.164;2023-02-03T08:14:01;0.40;99.90
18317;DHT22;9284;52.298;21.164;2023-02-03T08:16:29;0.40;1.00
18317;DHT22;9284;52.298;21.164;2023-02-03T08:18:57;0.30;99.90
18317;DHT22;9284;52.298;21.164;2023-02-03T08:21:26;0.40;1.00
18317;DHT22;9284;52.298;21.164;2023-02-03T08:23:54;0.40;99.90
18317;DHT22;9284;52.298;21.164;2023-02-03T08:26:22;0.50;1.00
18317;DHT22;9284;52.298;21.164;2023-02-03T08:28:52;0.50;99.90
18317;DHT22;9284;52.298;21.164;2023-02-03T08:31:20;0.50;99.90
18317;DHT22;9284;52.298;21.164;2023-02-03T08:33:49;0.60;99.90
18317;DHT22;9284;52.298;21.164;2023-02-03T08:36:17;0.60;99.90
18317;DHT22;9284;52.298;21.164;2023-02-03T08:38:45;0.70;1.00
18317;DHT22;9284;52.298;21.164;2023-02-03T08:41:16;0.90;1.00
18317;DHT22;9284;52.298;21.164;2023-02-03T08:43:45;0.90;1.00
18317;DHT22;9284;52.298;21.164;2023-02-03T08:46:15;1.00;1.00
18317;DHT22;9284;52.298;21.164;2023-02-03T08:48:43;1.00;1.00
18317;DHT22;9284;52.298;21.164;2023-02-03T08:51:14;1.00;99.90
18317;DHT22;9284;52.298;21.164;2023-02-03T08:53:42;1.00;1.00
18317;DHT22;9284;52.298;21.164;2023-02-03T08:56:11;1.10;99.90
18317;DHT22;9284;52.298;21.164;2023-02-03T08:58:40;1.00;99.90
18317;DHT22;9284;52.298;21.164;2023-02-03T09:01:09;1.00;99.90
18317;DHT22;9284;52.298;21.164;2023-02-03T09:03:39;1.10;99.90
18317;DHT22;9284;52.298;21.164;2023-02-03T09:06:08;1.10;99.90
18317;DHT22;9284;52.298;21.164;2023-02-03T09:08:39;1.10;1.00
18317;DHT22;9284;52.298;21.164;2023-02-03T09:11:08;1.20;1.00
18317;DHT22;9284;52.298;21.164;2023-02-03T09:13:37;1.20;99.90
18317;DHT22;9284;52.298;21.164;2023-02-03T09:16:05;1.20;1.00
18317;DHT22;9284;52.298;21.164;2023-02-03T09:18:34;1.20;99.90
18317;DHT22;9284;52.298;21.164;2023-02-03T09:21:05;1.40;1.00
18317;DHT22;9284;52.298;21.164;2023-02-03T09:23:34;1.30;99.90
18317;DHT22;9284;52.298;21.164;2023-02-03T09:26:02;1.30;99.90
18317;DHT22;9284;52.298;21.164;2023-02-03T09:28:31;1.30;99.90
18317;DHT22;9284;52.298;21.164;2023-02-03T09:30:59;1.50;99.90
18317;DHT22;9284;52.298;21.164;2023-02-03T09:33:28;1.60;99.90
18317;DHT22;9284;52.298;21.164;2023-02-03T09:35:57;1.60;99.90
18317;DHT22;9284;52.298;21.164;2023-02-03T09:38:27;1.60;99.90
18317;DHT22;9284;52.298;21.164;2023-02-03T09:40:59;1.70;99.90
18317;DHT22;9284;52.298;21.164;2023-02-03T09:43:41;1.70;99.90
18317;DHT22;9284;52.298;21.164;2023-02-03T09:46:14;1.80;99.90
18317;DHT22;9284;52.298;21.164;2023-02-03T09:48:48;1.90;99.90
18317;DHT22;9284;52.298;21.164;2023-02-03T09:51:20;1.90;1.00
18317;DHT22;9284;52.298;21.164;2023-02-03T09:53:55;1.90;1.00
18317;DHT22;9284;52.298;21.164;2023-02-03T09:56:28;1.90;1.00
18317;DHT22;9284;52.298;21.164;2023-02-03T09:58:57;2.00;1.00
18317;DHT22;9284;52.298;21.164;2023-02-03T10:01:39;2.00;1.00
18317;DHT22;9284;52.298;21.164;2023-02-03T10:04:22;2.00;1.00
18317;DHT22;9284;52.298;21.164;2023-02-03T10:07:01;2.00;1.00
18317;DHT22;9284;52.298;21.164;2023-02-03T10:09:44;2.10;1.00
18317;DHT22;9284;52.298;21.164;2023-02-03T10:15:21;2.10;1.00
18317;DHT22;9284;52.298;21.164;2023-02-03T10:17:56;2.10;1.00
18317;DHT22;9284;52.298;21.164;2023-02-03T10:20:31;2.20;1.00
18317;DHT22;9284;52.298;21.164;2023-02-03T10:23:09;2.30;1.00
18317;DHT22;9284;52.298;21.164;2023-02-03T10:25:42;2.10;1.00
18317;DHT22;9284;52.298;21.164;2023-02-03T10:28:15;2.10;1.00
18317;DHT22;9284;52.298;21.164;2023-02-03T10:30:47;2.00;1.00
18317;DHT22;9284;52.298;21.164;2023-02-03T10:33:18;2.00;1.00
18317;DHT22;9284;52.298;21.164;2023-02-03T10:35:50;2.00;1.00
18317;DHT22;9284;52.298;21.164;2023-02-03T10:38:28;2.10;1.00
18317;DHT22;9284;52.298;21.164;2023-02-03T10:41:01;2.30;1.00
18317;DHT22;9284;52.298;21.164;2023-02-03T10:43:31;2.30;1.00
18317;DHT22;9284;52.298;21.164;2023-02-03T10:46:19;2.10;1.00
18317;DHT22;9284;52.298;21.164;2023-02-03T10:48:48;2.10;1.00
18317;DHT22;9284;52.298;21.164;2023-02-03T10:51:20;2.00;1.00
18317;DHT22;9284;52.298;21.164;2023-02-03T10:53:50;1.90;1.00
18317;DHT22;9284;52.298;21.164;2023-02-03T10:56:23;1.90;1.00
18317;DHT22;9284;52.298;21.164;2023-02-03T10:58:54;2.00;1.00
18317;DHT22;9284;52.298;21.164;2023-02-03T11:01:24;2.00;1.00
18317;DHT22;9284;52.298;21.164;2023-02-03T11:03:59;2.00;1.00
18317;DHT22;9284;52.298;21.164;2023-02-03T11:06:30;2.10;1.00
18317;DHT22;9284;52.298;21.164;2023-02-03T11:08:58;2.20;1.00
18317;DHT22;9284;52.298;21.164;2023-02-03T11:11:29;2.20;1.00
18317;DHT22;9284;52.298;21.164;2023-02-03T11:14:15;2.30;1.00
18317;DHT22;9284;52.298;21.164;2023-02-03T11:16:44;2.30;1.00
18317;DHT22;9284;52.298;21.164;2023-02-03T11:19:16;2.40;1.00
18317;DHT22;9284;52.298;21.164;2023-02-03T11:21:47;2.50;1.00
18317;DHT22;9284;52.298;21.164;2023-02-03T11:24:19;2.50;1.00
18317;DHT22;9284;52.298;21.164;2023-02-03T11:26:52;2.60;1.00
18317;DHT22;9284;52.298;21.164;2023-02-03T11:29:23;2.70;1.00
18317;DHT22;9284;52.298;21.164;2023-02-03T11:31:54;2.30;1.00
18317;DHT22;9284;52.298;21.164;2023-02-03T11:34:26;2.40;1.00
18317;DHT22;9284;52.298;21.164;2023-02-03T11:36:55;2.40;1.00
18317;DHT22;9284;52.298;21.164;2023-02-03T11:39:26;2.40;1.00
18317;DHT22;9284;52.298;21.164;2023-02-03T11:41:56;2.30;1.00
18317;DHT22;9284;52.298;21.164;2023-02-03T11:44:26;2.30;1.00
18317;DHT22;9284;52.298;21.164;2023-02-03T11:46:59;2.20;99.90
18317;DHT22;9284;52.298;21.164;2023-02-03T11:49:59;2.10;1.00
18317;DHT22;9284;52.298;21.164;2023-02-03T11:55:32;2.10;99.90
18317;DHT22;9284;52.298;21.164;2023-02-03T11:58:18;2.10;99.90
18317;DHT22;9284;52.298;21.164;2023-02-03T12:00:55;2.10;99.90
18317;DHT22;9284;52.298;21.164;2023-02-03T12:03:40;1.80;99.90
18317;DHT22;9284;52.298;21.164;2023-02-03T12:06:21;1.80;99.90
18317;DHT22;9284;52.298;21.164;2023-02-03T12:09:02;1.80;99.90
18317;DHT22;9284;52.298;21.164;2023-02-03T12:11:42;1.90;99.90
18317;DHT22;9284;52.298;21.164;2023-02-03T12:14:27;2.00;99.90
18317;DHT22;9284;52.298;21.164;2023-02-03T12:17:23;1.90;99.90
18317;DHT22;9284;52.298;21.164;2023-02-03T12:20:05;1.80;99.90
18317;DHT22;9284;52.298;21.164;2023-02-03T12:22:44;1.80;99.90
18317;DHT22;9284;52.298;21.164;2023-02-03T12:25:26;1.80;99.90
18317;DHT22;9284;52.298;21.164;2023-02-03T12:28:07;1.80;99.90
18317;DHT22;9284;52.298;21.164;2023-02-03T12:30:52;1.80;99.90
18317;DHT22;9284;52.298;21.164;2023-02-03T12:33:26;1.70;99.90
18317;DHT22;9284;52.298;21.164;2023-02-03T12:36:02;1.80;99.90
18317;DHT22;9284;52.298;21.164;2023-02-03T12:38:35;1.80;99.90
18317;DHT22;9284;52.298;21.164;2023-02-03T12:41:10;1.80;99.90
18317;DHT22;9284;52.298;21.164;2023-02-03T12:43:42;1.90;99.90
18317;DHT22;9284;52.298;21.164;2023-02-03T12:46:19;1.90;99.90
18317;DHT22;9284;52.298;21.164;2023-02-03T12:48:53;1.70;99.90
18317;DHT22;9284;52.298;21.164;2023-02-03T12:51:32;1.70;99.90
18317;DHT22;9284;52.298;21.164;2023-02-03T12:54:06;1.60;99.90
18317;DHT22;9284;52.298;21.164;2023-02-03T12:56:40;1.60;99.90
18317;DHT22;9284;52.298;21.164;2023-02-03T12:59:14;1.70;99.90
18317;DHT22;9284;52.298;21.164;2023-02-03T13:01:49;1.60;99.90
18317;DHT22;9284;52.298;21.164;2023-02-03T13:04:27;1.60;99.90
18317;DHT22;9284;52.298;21.164;2023-02-03T13:07:01;1.60;99.90
18317;DHT22;9284;52.298;21.164;2023-02-03T13:09:37;1.60;99.90
18317;DHT22;9284;52.298;21.164;2023-02-03T13:12:09;1.70;99.90
18317;DHT22;9284;52.298;21.164;2023-02-03T13:14:41;1.70;99.90
18317;DHT22;9284;52.298;21.164;2023-02-03T13:17:17;1.60;99.90
18317;DHT22;9284;52.298;21.164;2023-02-03T13:19:49;1.80;99.90
18317;DHT22;9284;52.298;21.164;2023-02-03T13:22:21;1.60;99.90
18317;DHT22;9284;52.298;21.164;2023-02-03T13:24:54;1.60;99.90
18317;DHT22;9284;52.298;21.164;2023-02-03T13:27:38;1.50;99.90
18317;DHT22;9284;52.298;21.164;2023-02-03T13:30:38;1.50;99.90
18317;DHT22;9284;52.298;21.164;2023-02-03T13:36:53;1.40;99.90
18317;DHT22;9284;52.298;21.164;2023-02-03T13:39:45;1.40;99.90
18317;DHT22;9284;52.298;21.164;2023-02-03T13:42:23;1.40;99.90
18317;DHT22;9284;52.298;21.164;2023-02-03T13:44:55;1.40;99.90
18317;DHT22;9284;52.298;21.164;2023-02-03T13:47:27;1.40;99.90
18317;DHT22;9284;52.298;21.164;2023-02-03T13:49:58;1.20;1.00
18317;DHT22;9284;52.298;21.164;2023-02-03T13:52:34;1.10;1.00
18317;DHT22;9284;52.298;21.164;2023-02-03T13:55:05;0.80;1.00
18317;DHT22;9284;52.298;21.164;2023-02-03T13:57:35;0.60;99.90
18317;DHT22;9284;52.298;21.164;2023-02-03T14:00:10;0.50;99.90
18317;DHT22;9284;52.298;21.164;2023-02-03T14:02:55;0.40;99.90
18317;DHT22;9284;52.298;21.164;2023-02-03T14:05:44;0.30;1.00
18317;DHT22;9284;52.298;21.164;2023-02-03T14:11:41;0.20;1.00
18317;DHT22;9284;52.298;21.164;2023-02-03T14:14:40;0.10;1.00
18317;DHT22;9284;52.298;21.164;2023-02-03T14:23:12;-0.10;10.50
18317;DHT22;9284;52.298;21.164;2023-02-03T14:25:46;-0.10;99.90
18317;DHT22;9284;52.298;21.164;2023-02-03T14:28:19;-0.20;99.90
18317;DHT22;9284;52.298;21.164;2023-02-03T14:34:08;-0.30;1.00
18317;DHT22;9284;52.298;21.164;2023-02-03T14:36:49;-0.30;99.90
18317;DHT22;9284;52.298;21.164;2023-02-03T14:46:11;-0.50;1.00
18317;DHT22;9284;52.298;21.164;2023-02-03T14:49:03;-0.50;1.00
18317;DHT22;9284;52.298;21.164;2023-02-03T14:51:50;-0.50;99.90
18317;DHT22;9284;52.298;21.164;2023-02-03T14:54:40;-0.60;99.90
18317;DHT22;9284;52.298;21.164;2023-02-03T14:57:24;-0.50;1.00
18317;DHT22;9284;52.298;21.164;2023-02-03T14:59:56;-0.60;1.00
18317;DHT22;9284;52.298;21.164;2023-02-03T15:02:29;-0.50;1.00
18317;DHT22;9284;52.298;21.164;2023-02-03T15:05:36;-0.60;18.20
18317;DHT22;9284;52.298;21.164;2023-02-03T15:08:32;-0.60;99.90
18317;DHT22;9284;52.298;21.164;2023-02-03T15:14:13;-0.50;99.90
18317;DHT22;9284;52.298;21.164;2023-02-03T15:16:47;-0.60;99.90
18317;DHT22;9284;52.298;21.164;2023-02-03T15:19:21;-0.60;99.90
18317;DHT22;9284;52.298;21.164;2023-02-03T15:21:49;-0.60;99.90
18317;DHT22;9284;52.298;21.164;2023-02-03T15:24:19;-0.60;99.90
18317;DHT22;9284;52.298;21.164;2023-02-03T15:26:51;-0.60;99.90
18317;DHT22;9284;52.298;21.164;2023-02-03T15:29:25;-0.50;99.90
18317;DHT22;9284;52.298;21.164;2023-02-03T15:32:08;-0.60;99.90
18317;DHT22;9284;52.298;21.164;2023-02-03T15:34:43;-0.60;99.90
18317;DHT22;9284;52.298;21.164;2023-02-03T15:37:16;-0.50;1.00
18317;DHT22;9284;52.298;21.164;2023-02-03T15:39:54;-0.60;1.00
18317;DHT22;9284;52.298;21.164;2023-02-03T15:42:36;-0.60;1.00
18317;DHT22;9284;52.298;21.164;2023-02-03T15:45:11;-0.60;1.00
18317;DHT22;9284;52.298;21.164;2023-02-03T15:47:47;-0.60;1.00
18317;DHT22;9284;52.298;21.164;2023-02-03T15:50:28;-0.60;1.00
18317;DHT22;9284;52.298;21.164;2023-02-03T15:53:03;-0.60;1.00
18317;DHT22;9284;52.298;21.164;2023-02-03T15:55:35;-0.60;1.00
18317;DHT22;9284;52.298;21.164;2023-02-03T15:58:14;-0.60;1.00
18317;DHT22;9284;52.298;21.164;2023-02-03T16:00:47;-0.60;1.00
18317;DHT22;9284;52.298;21.164;2023-02-03T16:03:18;-0.50;1.00
18317;DHT22;9284;52.298;21.164;2023-02-03T16:05:49;-0.60;1.00
18317;DHT22;9284;52.298;21.164;2023-02-03T16:08:35;-0.60;1.00
18317;DHT22;9284;52.298;21.164;2023-02-03T16:11:25;-0.60;1.00
18317;DHT22;9284;52.298;21.164;2023-02-03T16:13:54;-0.50;1.00
18317;DHT22;9284;52.298;21.164;2023-02-03T16:16:24;-0.50;1.00
18317;DHT22;9284;52.298;21.164;2023-02-03T16:18:55;-0.50;1.00
18317;DHT22;9284;52.298;21.164;2023-02-03T16:21:29;-0.60;1.00
18317;DHT22;9284;52.298;21.164;2023-02-03T16:23:58;-0.60;1.00
18317;DHT22;9284;52.298;21.164;2023-02-03T16:26:27;-0.50;1.00
18317;DHT22;9284;52.298;21.164;2023-02-03T16:29:11;-0.60;1.00
18317;DHT22;9284;52.298;21.164;2023-02-03T16:31:57;-0.50;1.00
18317;DHT22;9284;52.298;21.164;2023-02-03T16:34:44;-0.50;1.00
18317;DHT22;9284;52.298;21.164;2023-02-03T16:37:33;-0.50;1.00
18317;DHT22;9284;52.298;21.164;2023-02-03T16:40:21;-0.60;1.00
18317;DHT22;9284;52.298;21.164;2023-02-03T16:43:11;-0.50;1.00
18317;DHT22;9284;52.298;21.164;2023-02-03T16:45:57;-0.50;1.00
18317;DHT22;9284;52.298;21.164;2023-02-03T16:48:44;-0.50;1.00
18317;DHT22;9284;52.298;21.164;2023-02-03T16:51:36;-0.50;1.00
18317;DHT22;9284;52.298;21.164;2023-02-03T16:54:09;-0.50;1.00
18317;DHT22;9284;52.298;21.164;2023-02-03T16:56:39;-0.50;1.00
18317;DHT22;9284;52.298;21.164;2023-02-03T16:59:08;-0.50;1.00
18317;DHT22;9284;52.298;21.164;2023-02-03T17:01:36;-0.50;1.00
18317;DHT22;9284;52.298;21.164;2023-02-03T17:04:05;-0.50;1.00
18317;DHT22;9284;52.298;21.164;2023-02-03T17:06:36;-0.40;1.00
18317;DHT22;9284;52.298;21.164;2023-02-03T17:09:04;-0.50;1.00
18317;DHT22;9284;52.298;21.164;2023-02-03T17:11:34;-0.50;1.00
18317;DHT22;9284;52.298;21.164;2023-02-03T17:14:03;-0.40;1.00
18317;DHT22;9284;52.298;21.164;2023-02-03T17:16:31;-0.50;1.00
18317;DHT22;9284;52.298;21.164;2023-02-03T17:18:59;-0.50;1.00
18317;DHT22;9284;52.298;21.164;2023-02-03T17:21:28;-0.50;1.00
18317;DHT22;9284;52.298;21.164;2023-02-03T17:23:57;-0.50;1.00
18317;DHT22;9284;52.298;21.164;2023-02-03T17:26:26;-0.50;1.00
18317;DHT22;9284;52.298;21.164;2023-02-03T17:28:56;-0.50;1.00
18317;DHT22;9284;52.298;21.164;2023-02-03T17:31:29;-0.40;1.00
18317;DHT22;9284;52.298;21.164;2023-02-03T17:33:58;-0.50;1.00
18317;DHT22;9284;52.298;21.164;2023-02-03T17:36:26;-0.40;1.00
18317;DHT22;9284;52.298;21.164;2023-02-03T17:38:55;-0.50;1.00
18317;DHT22;9284;52.298;21.164;2023-02-03T17:41:42;-0.40;1.00
18317;DHT22;9284;52.298;21.164;2023-02-03T17:44:29;-0.40;1.00
18317;DHT22;9284;52.298;21.164;2023-02-03T17:47:14;-0.40;1.00
18317;DHT22;9284;52.298;21.164;2023-02-03T17:50:00;-0.40;1.00
18317;DHT22;9284;52.298;21.164;2023-02-03T17:52:46;-0.40;1.00
18317;DHT22;9284;52.298;21.164;2023-02-03T17:55:28;-0.40;1.00
18317;DHT22;9284;52.298;21.164;2023-02-03T17:57:57;-0.40;1.00
18317;DHT22;9284;52.298;21.164;2023-02-03T18:00:27;-0.40;1.00
18317;DHT22;9284;52.298;21.164;2023-02-03T18:02:56;-0.40;1.00
18317;DHT22;9284;52.298;21.164;2023-02-03T18:05:24;-0.40;1.00
18317;DHT22;9284;52.298;21.164;2023-02-03T18:07:52;-0.40;1.00
18317;DHT22;9284;52.298;21.164;2023-02-03T18:10:21;-0.40;99.90
18317;DHT22;9284;52.298;21.164;2023-02-03T18:12:49;-0.30;99.90
18317;DHT22;9284;52.298;21.164;2023-02-03T18:15:17;-0.30;99.90
18317;DHT22;9284;52.298;21.164;2023-02-03T18:17:50;-0.20;99.90
18317;DHT22;9284;52.298;21.164;2023-02-03T18:20:19;-0.30;99.90
18317;DHT22;9284;52.298;21.164;2023-02-03T18:22:47;-0.30;99.90
18317;DHT22;9284;52.298;21.164;2023-02-03T18:25:15;-0.30;99.90
18317;DHT22;9284;52.298;21.164;2023-02-03T18:27:44;-0.30;34.30
18317;DHT22;9284;52.298;21.164;2023-02-03T18:30:13;-0.30;1.00
18317;DHT22;9284;52.298;21.164;2023-02-03T18:32:43;-0.30;9.80
18317;DHT22;9284;52.298;21.164;2023-02-03T18:35:14;-0.20;26.00
18317;DHT22;9284;52.298;21.164;2023-02-03T18:37:43;-0.30;1.00
18317;DHT22;9284;52.298;21.164;2023-02-03T18:40:11;-0.20;1.00
18317;DHT22;9284;52.298;21.164;2023-02-03T18:42:40;-0.30;1.00
18317;DHT22;9284;52.298;21.164;2023-02-03T18:45:09;-0.30;1.00
18317;DHT22;9284;52.298;21.164;2023-02-03T18:47:38;-0.30;1.00
18317;DHT22;9284;52.298;21.164;2023-02-03T18:50:07;-0.30;1.00
18317;DHT22;9284;52.298;21.164;2023-02-03T18:52:36;-0.20;1.00
18317;DHT22;9284;52.298;21.164;2023-02-03T18:55:06;-0.20;1.00
18317;DHT22;9284;52.298;21.164;2023-02-03T18:57:35;-0.20;1.00
18317;DHT22;9284;52.298;21.164;2023-02-03T19:00:04;-0.10;1.00
18317;DHT22;9284;52.298;21.164;2023-02-03T19:02:33;-0.20;1.00
18317;DHT22;9284;52.298;21.164;2023-02-03T19:05:01;-0.20;1.00
18317;DHT22;9284;52.298;21.164;2023-02-03T19:07:31;-0.20;1.00
18317;DHT22;9284;52.298;21.164;2023-02-03T19:10:01;-0.20;1.00
18317;DHT22;9284;52.298;21.164;2023-02-03T19:12:29;-0.20;1.00
18317;DHT22;9284;52.298;21.164;2023-02-03T19:14:57;-0.20;1.00
18317;DHT22;9284;52.298;21.164;2023-02-03T19:17:26;-0.20;1.00
18317;DHT22;9284;52.298;21.164;2023-02-03T19:19:54;-0.20;1.00
18317;DHT22;9284;52.298;21.164;2023-02-03T19:22:22;-0.20;1.00
18317;DHT22;9284;52.298;21.164;2023-02-03T19:24:51;-0.20;1.00
18317;DHT22;9284;52.298;21.164;2023-02-03T19:27:21;-0.20;1.00
18317;DHT22;9284;52.298;21.164;2023-02-03T19:29:50;-0.30;1.00
18317;DHT22;9284;52.298;21.164;2023-02-03T19:32:18;-0.30;1.00
18317;DHT22;9284;52.298;21.164;2023-02-03T19:34:47;-0.30;1.00
18317;DHT22;9284;52.298;21.164;2023-02-03T19:37:15;-0.10;1.00
18317;DHT22;9284;52.298;21.164;2023-02-03T19:39:44;-0.30;1.00
18317;DHT22;9284;52.298;21.164;2023-02-03T19:42:16;-0.20;1.00
18317;DHT22;9284;52.298;21.164;2023-02-03T19:44:46;-0.30;1.00
18317;DHT22;9284;52.298;21.164;2023-02-03T19:47:16;-0.30;1.00
18317;DHT22;9284;52.298;21.164;2023-02-03T19:49:45;-0.40;1.00
18317;DHT22;9284;52.298;21.164;2023-02-03T19:52:13;-0.30;1.00
18317;DHT22;9284;52.298;21.164;2023-02-03T19:54:41;-0.30;1.00
18317;DHT22;9284;52.298;21.164;2023-02-03T19:57:10;-0.30;1.00
18317;DHT22;9284;52.298;21.164;2023-02-03T19:59:38;-0.30;41.80
18317;DHT22;9284;52.298;21.164;2023-02-03T20:02:08;-0.30;99.90
18317;DHT22;9284;52.298;21.164;2023-02-03T20:04:40;-0.30;99.90
18317;DHT22;9284;52.298;21.164;2023-02-03T20:07:10;-0.40;99.90
18317;DHT22;9284;52.298;21.164;2023-02-03T20:09:39;-0.30;99.90
18317;DHT22;9284;52.298;21.164;2023-02-03T20:12:08;-0.30;99.90
18317;DHT22;9284;52.298;21.164;2023-02-03T20:14:36;-0.30;99.90
18317;DHT22;9284;52.298;21.164;2023-02-03T20:17:05;-0.40;99.90
18317;DHT22;9284;52.298;21.164;2023-02-03T20:19:35;-0.30;99.90
18317;DHT22;9284;52.298;21.164;2023-02-03T20:22:03;-0.30;99.90
18317;DHT22;9284;52.298;21.164;2023-02-03T20:24:31;-0.30;99.90
18317;DHT22;9284;52.298;21.164;2023-02-03T20:27:00;-0.30;99.90
18317;DHT22;9284;52.298;21.164;2023-02-03T20:29:29;-0.30;99.90
18317;DHT22;9284;52.298;21.164;2023-02-03T20:31:57;-0.30;99.90
18317;DHT22;9284;52.298;21.164;2023-02-03T20:34:25;-0.30;99.90
18317;DHT22;9284;52.298;21.164;2023-02-03T20:36:56;-0.30;99.90
18317;DHT22;9284;52.298;21.164;2023-02-03T20:39:25;-0.30;99.90
18317;DHT22;9284;52.298;21.164;2023-02-03T20:41:54;-0.30;99.90
18317;DHT22;9284;52.298;21.164;2023-02-03T20:44:22;-0.30;99.90
18317;DHT22;9284;52.298;21.164;2023-02-03T20:46:50;-0.30;99.90
18317;DHT22;9284;52.298;21.164;2023-02-03T20:49:19;-0.30;99.90
18317;DHT22;9284;52.298;21.164;2023-02-03T20:51:47;-0.40;99.90
18317;DHT22;9284;52.298;21.164;2023-02-03T20:54:19;-0.30;99.90